sensor_id;sensor_type;location;lat;lon;timestamp;pressure;altitude;pressure_sealevel;temperature;humidity
5780;BME280;2916;49.798;10.022;2022-10-04T00:02:26;146186.44;;;7.65;97.84
5780;BME280;2916;49.798;10.022;2022-10-04T00:04:59;146218.66;;;7.78;100.00
5780;BME280;2916;49.798;10.022;2022-10-04T00:07:33;146205.00;;;7.73;100.00
5780;BME280;2916;49.798;10.022;2022-10-04T00:10:12;146201.31;;;7.71;100.00
5780;BME280;2916;49.798;10.022;2022-10-04T00:12:48;146179.00;;;7.62;100.00
5780;BME280;2916;49.798;10.022;2022-10-04T00:15:22;146174.06;;;7.60;100.00
5780;BME280;2916;49.798;10.022;2022-10-04T00:18:19;146164.16;;;7.56;100.00
5780;BME280;2916;49.798;10.022;2022-10-04T00:21:04;146166.63;;;7.57;100.00
5780;BME280;2916;49.798;10.022;2022-10-04T00:23:46;146169.09;;;7.58;100.00
5780;BME280;2916;49.798;10.022;2022-10-04T00:29:38;146161.69;;;7.55;100.00
5780;BME280;2916;49.798;10.022;2022-10-04T00:32:29;146145.59;;;7.48;100.00
5780;BME280;2916;49.798;10.022;2022-10-04T00:34:58;146138.16;;;7.45;100.00
5780;BME280;2916;49.798;10.022;2022-10-04T00:37:31;146127.00;;;7.41;100.00
5780;BME280;2916;49.798;10.022;2022-10-04T00:40:18;146129.47;;;7.42;100.00
5780;BME280;2916;49.798;10.022;2022-10-04T00:42:56;146117.09;;;7.36;100.00
5780;BME280;2916;49.798;10.022;2022-10-04T00:45:34;146122.03;;;7.38;100.00
5780;BME280;2916;49.798;10.022;2022-10-04T00:48:41;146107.22;;;7.32;100.00
5780;BME280;2916;49.798;10.022;2022-10-04T00:51:21;146091.09;;;7.26;100.00
5780;BME280;2916;49.798;10.022;2022-10-04T00:54:00;146144.34;;;7.48;100.00
5780;BME280;2916;49.798;10.022;2022-10-04T00:56:40;146141.88;;;7.47;100.00
5780;BME280;2916;49.798;10.022;2022-10-04T00:59:33;146131.94;;;7.43;100.00
5780;BME280;2916;49.798;10.022;2022-10-04T01:02:05;146133.22;;;7.43;100.00
5780;BME280;2916;49.798;10.022;2022-10-04T01:04:45;146143.13;;;7.47;100.00
5780;BME280;2916;49.798;10.022;2022-10-04T01:07:18;146112.13;;;7.34;100.00
5780;BME280;2916;49.798;10.022;2022-10-04T01:09:52;146127.00;;;7.41;100.00
5780;BME280;2916;49.798;10.022;2022-10-04T01:12:38;146114.66;;;7.35;100.00
5780;BME280;2916;49.798;10.022;2022-10-04T01:15:15;146131.94;;;7.43;100.00
5780;BME280;2916;49.798;10.022;2022-10-04T01:18:07;146035.38;;;7.03;100.00
5780;BME280;2916;49.798;10.022;2022-10-04T01:20:38;146125.78;;;7.40;100.00
5780;BME280;2916;49.798;10.022;2022-10-04T01:23:09;146122.03;;;7.38;100.00
5780;BME280;2916;49.798;10.022;2022-10-04T01:25:46;146037.91;;;7.04;100.00
5780;BME280;2916;49.798;10.022;2022-10-04T01:28:13;146077.50;;;7.20;100.00
5780;BME280;2916;49.798;10.022;2022-10-04T01:30:42;146099.78;;;7.29;100.00
5780;BME280;2916;49.798;10.022;2022-10-04T01:33:11;146076.28;;;7.20;100.00
5780;BME280;2916;49.798;10.022;2022-10-04T01:35:39;146058.94;;;7.12;100.00
5780;BME280;2916;49.798;10.022;2022-10-04T01:38:08;146018.09;;;6.96;100.00
5780;BME280;2916;49.798;10.022;2022-10-04T01:40:43;146020.56;;;6.97;100.00
5780;BME280;2916;49.798;10.022;2022-10-04T01:43:21;145896.81;;;6.46;100.00
5780;BME280;2916;49.798;10.022;2022-10-04T01:45:54;146010.66;;;6.93;100.00
5780;BME280;2916;49.798;10.022;2022-10-04T01:48:28;146006.91;;;6.91;100.00
5780;BME280;2916;49.798;10.022;2022-10-04T01:51:04;146008.16;;;6.92;100.00
5780;BME280;2916;49.798;10.022;2022-10-04T01:53:41;145998.25;;;6.87;100.00
5780;BME280;2916;49.798;10.022;2022-10-04T01:56:14;145988.34;;;6.83;100.00
5780;BME280;2916;49.798;10.022;2022-10-04T01:58:47;145985.88;;;6.82;100.00
5780;BME280;2916;49.798;10.022;2022-10-04T02:01:22;145968.56;;;6.75;100.00
5780;BME280;2916;49.798;10.022;2022-10-04T02:04:00;145964.84;;;6.74;100.00
5780;BME280;2916;49.798;10.022;2022-10-04T02:06:36;145931.44;;;6.60;100.00
5780;BME280;2916;49.798;10.022;2022-10-04T02:09:11;145945.06;;;6.66;100.00
5780;BME280;2916;49.798;10.022;2022-10-04T02:11:42;145957.44;;;6.71;100.00
5780;BME280;2916;49.798;10.022;2022-10-04T02:14:13;145848.56;;;6.26;100.00
5780;BME280;2916;49.798;10.022;2022-10-04T02:16:45;145815.16;;;6.12;100.00
5780;BME280;2916;49.798;10.022;2022-10-04T02:19:20;145932.72;;;6.60;100.00
5780;BME280;2916;49.798;10.022;2022-10-04T02:21:51;145928.97;;;6.59;100.00
5780;BME280;2916;49.798;10.022;2022-10-04T02:24:20;145902.97;;;6.48;100.00
5780;BME280;2916;49.798;10.022;2022-10-04T02:26:51;145909.16;;;6.51;100.00
5780;BME280;2916;49.798;10.022;2022-10-04T02:29:19;145919.06;;;6.55;100.00
5780;BME280;2916;49.798;10.022;2022-10-04T02:31:48;145904.25;;;6.49;100.00
5780;BME280;2916;49.798;10.022;2022-10-04T02:34:35;145904.25;;;6.49;100.00
5780;BME280;2916;49.798;10.022;2022-10-04T02:37:03;145844.81;;;6.24;100.00
5780;BME280;2916;49.798;10.022;2022-10-04T02:39:36;145884.44;;;6.41;100.00
5780;BME280;2916;49.798;10.022;2022-10-04T02:42:11;145894.34;;;6.45;100.00
5780;BME280;2916;49.798;10.022;2022-10-04T02:44:46;145884.44;;;6.41;100.00
5780;BME280;2916;49.798;10.022;2022-10-04T02:47:19;145875.78;;;6.37;100.00
5780;BME280;2916;49.798;10.022;2022-10-04T02:49:51;145880.72;;;6.39;100.00
5780;BME280;2916;49.798;10.022;2022-10-04T02:52:24;145878.25;;;6.38;100.00
5780;BME280;2916;49.798;10.022;2022-10-04T02:55:00;145878.25;;;6.38;100.00
5780;BME280;2916;49.798;10.022;2022-10-04T02:57:32;145879.47;;;6.38;100.00
5780;BME280;2916;49.798;10.022;2022-10-04T03:00:17;145834.94;;;6.20;100.00
5780;BME280;2916;49.798;10.022;2022-10-04T03:03:16;145857.22;;;6.29;100.00
5780;BME280;2916;49.798;10.022;2022-10-04T03:05:58;145823.81;;;6.15;100.00
5780;BME280;2916;49.798;10.022;2022-10-04T03:08:30;145820.13;;;6.14;100.00
5780;BME280;2916;49.798;10.022;2022-10-04T03:11:01;145812.69;;;6.11;100.00
5780;BME280;2916;49.798;10.022;2022-10-04T03:13:30;145851.03;;;6.27;100.00
5780;BME280;2916;49.798;10.022;2022-10-04T03:15:59;145867.13;;;6.33;100.00
5780;BME280;2916;49.798;10.022;2022-10-04T03:18:28;145842.38;;;6.23;100.00
5780;BME280;2916;49.798;10.022;2022-10-04T03:20:59;145832.47;;;6.19;100.00
5780;BME280;2916;49.798;10.022;2022-10-04T03:23:30;145844.81;;;6.24;100.00
5780;BME280;2916;49.798;10.022;2022-10-04T03:26:05;145827.56;;;6.17;100.00
5780;BME280;2916;49.798;10.022;2022-10-04T03:28:40;145825.03;;;6.16;100.00
5780;BME280;2916;49.798;10.022;2022-10-04T03:31:07;145839.91;;;6.22;100.00
5780;BME280;2916;49.798;10.022;2022-10-04T03:33:36;145839.91;;;6.22;100.00
5780;BME280;2916;49.798;10.022;2022-10-04T03:36:04;145825.03;;;6.16;100.00
5780;BME280;2916;49.798;10.022;2022-10-04T03:38:34;145816.38;;;6.12;100.00
5780;BME280;2916;49.798;10.022;2022-10-04T03:41:03;145846.06;;;6.25;100.00
5780;BME280;2916;49.798;10.022;2022-10-04T03:43:38;145805.25;;;6.08;100.00
5780;BME280;2916;49.798;10.022;2022-10-04T03:46:09;145801.56;;;6.06;100.00
5780;BME280;2916;49.798;10.022;2022-10-04T03:48:42;145820.13;;;6.14;100.00
5780;BME280;2916;49.798;10.022;2022-10-04T03:51:15;145827.56;;;6.17;100.00
5780;BME280;2916;49.798;10.022;2022-10-04T03:53:48;145832.47;;;6.19;100.00
5780;BME280;2916;49.798;10.022;2022-10-04T03:56:24;145815.16;;;6.12;100.00
5780;BME280;2916;49.798;10.022;2022-10-04T03:58:53;145822.56;;;6.15;100.00
5780;BME280;2916;49.798;10.022;2022-10-04T04:01:38;145825.03;;;6.16;100.00
5780;BME280;2916;49.798;10.022;2022-10-04T04:04:18;145820.13;;;6.14;100.00
5780;BME280;2916;49.798;10.022;2022-10-04T04:06:57;145804.03;;;6.07;100.00
5780;BME280;2916;49.798;10.022;2022-10-04T04:09:39;145785.47;;;6.00;100.00
5780;BME280;2916;49.798;10.022;2022-10-04T04:12:16;145775.56;;;5.96;100.00
5780;BME280;2916;49.798;10.022;2022-10-04T04:14:49;145733.50;;;5.78;100.00
5780;BME280;2916;49.798;10.022;2022-10-04T04:17:32;145721.09;;;5.73;100.00
5780;BME280;2916;49.798;10.022;2022-10-04T04:20:11;145802.78;;;6.07;100.00
5780;BME280;2916;49.798;10.022;2022-10-04T04:22:44;145815.16;;;6.12;100.00
5780;BME280;2916;49.798;10.022;2022-10-04T04:25:16;145785.47;;;6.00;100.00
5780;BME280;2916;49.798;10.022;2022-10-04T04:27:46;145779.25;;;5.97;100.00
5780;BME280;2916;49.798;10.022;2022-10-04T04:30:17;145780.53;;;5.98;100.00
5780;BME280;2916;49.798;10.022;2022-10-04T04:32:48;145766.91;;;5.92;100.00
5780;BME280;2916;49.798;10.022;2022-10-04T04:35:23;145797.81;;;6.05;100.00
5780;BME280;2916;49.798;10.022;2022-10-04T04:38:14;145773.09;;;5.95;100.00
5780;BME280;2916;49.798;10.022;2022-10-04T04:40:43;145818.88;;;6.13;100.00
5780;BME280;2916;49.798;10.022;2022-10-04T04:43:16;145832.47;;;6.19;100.00
5780;BME280;2916;49.798;10.022;2022-10-04T04:45:46;145837.44;;;6.21;100.00
5780;BME280;2916;49.798;10.022;2022-10-04T04:48:16;145825.03;;;6.16;100.00
5780;BME280;2916;49.798;10.022;2022-10-04T04:50:52;145822.56;;;6.15;100.00
5780;BME280;2916;49.798;10.022;2022-10-04T04:53:23;145842.38;;;6.23;100.00
5780;BME280;2916;49.798;10.022;2022-10-04T04:55:57;145790.44;;;6.02;100.00
5780;BME280;2916;49.798;10.022;2022-10-04T04:58:32;145830.00;;;6.18;100.00
5780;BME280;2916;49.798;10.022;2022-10-04T05:01:04;145854.72;;;6.28;100.00
5780;BME280;2916;49.798;10.022;2022-10-04T05:03:32;145864.63;;;6.32;100.00
5780;BME280;2916;49.798;10.022;2022-10-04T05:06:00;145822.56;;;6.15;100.00
5780;BME280;2916;49.798;10.022;2022-10-04T05:08:32;145812.69;;;6.11;100.00
5780;BME280;2916;49.798;10.022;2022-10-04T05:11:04;145867.13;;;6.33;100.00
5780;BME280;2916;49.798;10.022;2022-10-04T05:13:43;145849.78;;;6.26;100.00
5780;BME280;2916;49.798;10.022;2022-10-04T05:16:17;145846.06;;;6.25;100.00
5780;BME280;2916;49.798;10.022;2022-10-04T05:18:46;145874.50;;;6.36;100.00
5780;BME280;2916;49.798;10.022;2022-10-04T05:21:21;145886.91;;;6.42;100.00
5780;BME280;2916;49.798;10.022;2022-10-04T05:23:50;145873.28;;;6.36;100.00
5780;BME280;2916;49.798;10.022;2022-10-04T05:26:26;145853.50;;;6.28;100.00
5780;BME280;2916;49.798;10.022;2022-10-04T05:29:04;145860.94;;;6.31;100.00
5780;BME280;2916;49.798;10.022;2022-10-04T05:31:44;145877.03;;;6.37;100.00
5780;BME280;2916;49.798;10.022;2022-10-04T05:34:21;145885.69;;;6.41;100.00
5780;BME280;2916;49.798;10.022;2022-10-04T05:37:13;145875.78;;;6.37;100.00
5780;BME280;2916;49.798;10.022;2022-10-04T05:40:02;145890.63;;;6.43;100.00
5780;BME280;2916;49.798;10.022;2022-10-04T05:42:38;145795.34;;;6.04;100.00
5780;BME280;2916;49.798;10.022;2022-10-04T05:45:25;145915.38;;;6.53;100.00
5780;BME280;2916;49.798;10.022;2022-10-04T05:47:55;145935.16;;;6.61;100.00
5780;BME280;2916;49.798;10.022;2022-10-04T05:50:30;145919.06;;;6.55;100.00
5780;BME280;2916;49.798;10.022;2022-10-04T05:53:21;145901.75;;;6.48;100.00
5780;BME280;2916;49.798;10.022;2022-10-04T05:56:14;145932.72;;;6.60;100.00
5780;BME280;2916;49.798;10.022;2022-10-04T05:58:59;145953.72;;;6.69;100.00
5780;BME280;2916;49.798;10.022;2022-10-04T06:01:44;145963.63;;;6.73;100.00
5780;BME280;2916;49.798;10.022;2022-10-04T06:04:36;145958.66;;;6.71;100.00
5780;BME280;2916;49.798;10.022;2022-10-04T06:07:18;145966.09;;;6.74;100.00
5780;BME280;2916;49.798;10.022;2022-10-04T06:10:07;145971.06;;;6.76;100.00
5780;BME280;2916;49.798;10.022;2022-10-04T06:12:49;146005.69;;;6.91;100.00
5780;BME280;2916;49.798;10.022;2022-10-04T06:18:43;145899.28;;;6.47;100.00
5780;BME280;2916;49.798;10.022;2022-10-04T06:21:21;145984.66;;;6.82;100.00
5780;BME280;2916;49.798;10.022;2022-10-04T06:23:59;146010.66;;;6.93;100.00
5780;BME280;2916;49.798;10.022;2022-10-04T06:26:36;146044.06;;;7.06;100.00
5780;BME280;2916;49.798;10.022;2022-10-04T06:29:12;146060.16;;;7.13;100.00
5780;BME280;2916;49.798;10.022;2022-10-04T06:39:17;146101.00;;;7.30;100.00
5780;BME280;2916;49.798;10.022;2022-10-04T06:45:21;146141.88;;;7.47;100.00
5780;BME280;2916;49.798;10.022;2022-10-04T06:48:29;146039.13;;;7.04;100.00
5780;BME280;2916;49.798;10.022;2022-10-04T06:51:18;146181.50;;;7.63;100.00
5780;BME280;2916;49.798;10.022;2022-10-04T06:54:02;146186.44;;;7.65;100.00
5780;BME280;2916;49.798;10.022;2022-10-04T06:57:03;146213.69;;;7.76;100.00
5780;BME280;2916;49.798;10.022;2022-10-04T07:00:03;146211.22;;;7.75;100.00
5780;BME280;2916;49.798;10.022;2022-10-04T07:02:39;146223.59;;;7.80;100.00
5780;BME280;2916;49.798;10.022;2022-10-04T07:05:18;146195.09;;;7.69;100.00
5780;BME280;2916;49.798;10.022;2022-10-04T07:08:05;146151.78;;;7.51;100.00
5780;BME280;2916;49.798;10.022;2022-10-04T07:10:50;146145.59;;;7.48;100.00
5780;BME280;2916;49.798;10.022;2022-10-04T07:13:33;146187.66;;;7.66;100.00
5780;BME280;2916;49.798;10.022;2022-10-04T07:16:20;146208.75;;;7.74;100.00
5780;BME280;2916;49.798;10.022;2022-10-04T07:18:59;146268.19;;;7.99;100.00
5780;BME280;2916;49.798;10.022;2022-10-04T07:21:39;146197.56;;;7.70;100.00
5780;BME280;2916;49.798;10.022;2022-10-04T07:24:18;146217.38;;;7.78;100.00
5780;BME280;2916;49.798;10.022;2022-10-04T07:26:49;146245.88;;;7.90;100.00
5780;BME280;2916;49.798;10.022;2022-10-04T07:29:22;146259.53;;;7.95;100.00
5780;BME280;2916;49.798;10.022;2022-10-04T07:32:03;146223.59;;;7.80;100.00
5780;BME280;2916;49.798;10.022;2022-10-04T07:34:39;146228.56;;;7.82;100.00
5780;BME280;2916;49.798;10.022;2022-10-04T07:37:10;146263.22;;;7.97;100.00
5780;BME280;2916;49.798;10.022;2022-10-04T07:39:47;146297.91;;;8.11;100.00
5780;BME280;2916;49.798;10.022;2022-10-04T07:42:25;146402.03;;;8.54;100.00
5780;BME280;2916;49.798;10.022;2022-10-04T07:45:12;146483.81;;;8.88;100.00
5780;BME280;2916;49.798;10.022;2022-10-04T07:47:43;146542.06;;;9.12;100.00
5780;BME280;2916;49.798;10.022;2022-10-04T07:50:23;146568.13;;;9.22;100.00
5780;BME280;2916;49.798;10.022;2022-10-04T07:52:56;146623.91;;;9.45;100.00
5780;BME280;2916;49.798;10.022;2022-10-04T07:55:51;146570.56;;;9.23;97.87
5780;BME280;2916;49.798;10.022;2022-10-04T07:58:35;146573.09;;;9.24;97.61
5780;BME280;2916;49.798;10.022;2022-10-04T08:01:19;146548.28;;;9.14;98.50
5780;BME280;2916;49.798;10.022;2022-10-04T08:04:05;146517.31;;;9.01;98.13
5780;BME280;2916;49.798;10.022;2022-10-04T08:06:45;146528.44;;;9.06;98.64
5780;BME280;2916;49.798;10.022;2022-10-04T08:09:41;146525.97;;;9.05;98.94
5780;BME280;2916;49.798;10.022;2022-10-04T08:12:21;146556.97;;;9.18;99.46
5780;BME280;2916;49.798;10.022;2022-10-04T08:15:07;146592.91;;;9.32;98.99
5780;BME280;2916;49.798;10.022;2022-10-04T08:17:55;146615.22;;;9.42;98.05
5780;BME280;2916;49.798;10.022;2022-10-04T08:20:37;146643.75;;;9.53;99.04
5780;BME280;2916;49.798;10.022;2022-10-04T08:23:40;146659.88;;;9.60;97.47
5780;BME280;2916;49.798;10.022;2022-10-04T08:26:38;146656.13;;;9.58;98.59
5780;BME280;2916;49.798;10.022;2022-10-04T08:29:45;146782.69;;;10.11;98.83
5780;BME280;2916;49.798;10.022;2022-10-04T08:32:28;146788.84;;;10.13;97.13
5780;BME280;2916;49.798;10.022;2022-10-04T08:35:18;146781.44;;;10.10;97.53
5780;BME280;2916;49.798;10.022;2022-10-04T08:38:15;146860.88;;;10.43;98.24
5780;BME280;2916;49.798;10.022;2022-10-04T08:41:29;146935.34;;;10.73;97.11
5780;BME280;2916;49.798;10.022;2022-10-04T08:48:32;147002.38;;;11.01;94.83
5780;BME280;2916;49.798;10.022;2022-10-04T08:52:02;147054.50;;;11.22;95.98
5780;BME280;2916;49.798;10.022;2022-10-04T08:55:34;147052.00;;;11.21;94.86
5780;BME280;2916;49.798;10.022;2022-10-04T08:58:30;147018.47;;;11.07;95.45
5780;BME280;2916;49.798;10.022;2022-10-04T09:14:37;147255.72;;;12.05;90.19
5780;BME280;2916;49.798;10.022;2022-10-04T09:17:20;147253.25;;;12.04;88.57
5780;BME280;2916;49.798;10.022;2022-10-04T09:20:19;147325.28;;;12.34;87.11
5780;BME280;2916;49.798;10.022;2022-10-04T09:22:53;147384.94;;;12.58;86.92
5780;BME280;2916;49.798;10.022;2022-10-04T09:25:57;147337.72;;;12.39;85.46
5780;BME280;2916;49.798;10.022;2022-10-04T09:29:19;147398.59;;;12.64;86.19
5780;BME280;2916;49.798;10.022;2022-10-04T09:36:18;147479.41;;;12.97;81.74
5780;BME280;2916;49.798;10.022;2022-10-04T09:39:26;147541.53;;;13.22;81.00
5780;BME280;2916;49.798;10.022;2022-10-04T09:42:19;147567.72;;;13.33;80.96
5780;BME280;2916;49.798;10.022;2022-10-04T09:45:22;147549.06;;;13.25;80.48
5780;BME280;2916;49.798;10.022;2022-10-04T09:48:21;147506.72;;;13.08;80.68
5780;BME280;2916;49.798;10.022;2022-10-04T09:51:48;147578.91;;;13.38;81.10
5780;BME280;2916;49.798;10.022;2022-10-04T09:54:55;147685.84;;;13.82;79.73
5780;BME280;2916;49.798;10.022;2022-10-04T09:57:52;147735.56;;;14.02;80.46
5780;BME280;2916;49.798;10.022;2022-10-04T10:00:31;147695.78;;;13.86;79.99
5780;BME280;2916;49.798;10.022;2022-10-04T10:03:37;147684.59;;;13.81;79.90
5780;BME280;2916;49.798;10.022;2022-10-04T10:06:36;147774.13;;;14.18;79.17
5780;BME280;2916;49.798;10.022;2022-10-04T10:09:30;147797.78;;;14.28;79.34
5780;BME280;2916;49.798;10.022;2022-10-04T10:12:39;147853.84;;;14.51;79.46
5780;BME280;2916;49.798;10.022;2022-10-04T10:15:34;147960.84;;;14.94;76.28
5780;BME280;2916;49.798;10.022;2022-10-04T10:18:15;147902.38;;;14.70;76.90
5780;BME280;2916;49.798;10.022;2022-10-04T10:21:11;147929.75;;;14.82;76.60
5780;BME280;2916;49.798;10.022;2022-10-04T10:24:17;147929.75;;;14.82;76.30
5780;BME280;2916;49.798;10.022;2022-10-04T10:27:24;147902.38;;;14.70;75.94
5780;BME280;2916;49.798;10.022;2022-10-04T10:30:20;147954.63;;;14.92;75.99
5780;BME280;2916;49.798;10.022;2022-10-04T10:36:48;147959.63;;;14.94;75.83
5780;BME280;2916;49.798;10.022;2022-10-04T10:39:53;147970.81;;;14.98;75.58
5780;BME280;2916;49.798;10.022;2022-10-04T10:46:08;148035.56;;;15.25;74.11
5780;BME280;2916;49.798;10.022;2022-10-04T10:49:02;148016.88;;;15.17;72.52
5780;BME280;2916;49.798;10.022;2022-10-04T10:58:52;148191.22;;;15.89;74.35
5780;BME280;2916;49.798;10.022;2022-10-04T11:01:52;148197.44;;;15.91;73.10
5780;BME280;2916;49.798;10.022;2022-10-04T11:04:42;148173.78;;;15.82;72.87
5780;BME280;2916;49.798;10.022;2022-10-04T11:07:49;148165.06;;;15.78;71.05
5780;BME280;2916;49.798;10.022;2022-10-04T11:11:01;148216.13;;;15.99;71.49
5780;BME280;2916;49.798;10.022;2022-10-04T11:14:28;148203.69;;;15.94;70.60
5780;BME280;2916;49.798;10.022;2022-10-04T11:20:55;148201.19;;;15.93;70.54
5780;BME280;2916;49.798;10.022;2022-10-04T11:24:16;148294.63;;;16.31;71.07
5780;BME280;2916;49.798;10.022;2022-10-04T11:27:13;148353.19;;;16.55;68.30
5780;BME280;2916;49.798;10.022;2022-10-04T11:30:07;148414.25;;;16.80;68.44
5780;BME280;2916;49.798;10.022;2022-10-04T11:36:40;148360.63;;;16.58;67.30
5780;BME280;2916;49.798;10.022;2022-10-04T11:39:52;148432.97;;;16.88;68.36
5780;BME280;2916;49.798;10.022;2022-10-04T11:42:41;148375.59;;;16.64;69.92
5780;BME280;2916;49.798;10.022;2022-10-04T11:48:34;148385.56;;;16.68;67.98
5780;BME280;2916;49.798;10.022;2022-10-04T11:51:45;148415.50;;;16.81;68.18
5780;BME280;2916;49.798;10.022;2022-10-04T11:57:37;148457.91;;;16.98;67.87
5780;BME280;2916;49.798;10.022;2022-10-04T12:00:16;148405.53;;;16.77;66.39
5780;BME280;2916;49.798;10.022;2022-10-04T12:03:41;148475.31;;;17.05;66.48
5780;BME280;2916;49.798;10.022;2022-10-04T12:06:25;148460.38;;;16.99;64.93
5780;BME280;2916;49.798;10.022;2022-10-04T12:09:13;148523.97;;;17.25;63.49
5780;BME280;2916;49.798;10.022;2022-10-04T12:12:34;148557.59;;;17.39;61.37
5780;BME280;2916;49.798;10.022;2022-10-04T12:19:14;148486.56;;;17.10;61.93
5780;BME280;2916;49.798;10.022;2022-10-04T12:22:17;148460.38;;;16.99;61.82
5780;BME280;2916;49.798;10.022;2022-10-04T12:25:27;148430.47;;;16.87;63.26
5780;BME280;2916;49.798;10.022;2022-10-04T12:28:24;148502.75;;;17.16;64.05
5780;BME280;2916;49.798;10.022;2022-10-04T12:31:20;148510.22;;;17.20;62.02
5780;BME280;2916;49.798;10.022;2022-10-04T12:34:01;148476.59;;;17.06;61.62
5780;BME280;2916;49.798;10.022;2022-10-04T12:36:50;148506.50;;;17.18;62.24
5780;BME280;2916;49.798;10.022;2022-10-04T12:39:38;148470.34;;;17.03;62.24
5780;BME280;2916;49.798;10.022;2022-10-04T12:42:27;148507.75;;;17.18;62.60
5780;BME280;2916;49.798;10.022;2022-10-04T12:45:44;148345.69;;;16.52;62.08
5780;BME280;2916;49.798;10.022;2022-10-04T12:48:29;148523.97;;;17.25;63.46
5780;BME280;2916;49.798;10.022;2022-10-04T12:51:23;148482.81;;;17.08;61.10
5780;BME280;2916;49.798;10.022;2022-10-04T12:54:01;148541.38;;;17.32;62.16
5780;BME280;2916;49.798;10.022;2022-10-04T12:56:49;148530.16;;;17.28;61.85
5780;BME280;2916;49.798;10.022;2022-10-04T12:59:43;148572.59;;;17.45;61.19
5780;BME280;2916;49.798;10.022;2022-10-04T13:05:36;148550.09;;;17.36;61.12
5780;BME280;2916;49.798;10.022;2022-10-04T13:08:21;148582.56;;;17.49;62.70
5780;BME280;2916;49.798;10.022;2022-10-04T13:11:23;148597.47;;;17.55;62.35
5780;BME280;2916;49.798;10.022;2022-10-04T13:14:23;148517.72;;;17.23;62.07
5780;BME280;2916;49.798;10.022;2022-10-04T13:17:02;148546.38;;;17.34;61.67
5780;BME280;2916;49.798;10.022;2022-10-04T13:19:48;148567.56;;;17.43;61.74
5780;BME280;2916;49.798;10.022;2022-10-04T13:22:35;148612.47;;;17.61;63.02
5780;BME280;2916;49.798;10.022;2022-10-04T13:25:25;148575.06;;;17.46;61.22
5780;BME280;2916;49.798;10.022;2022-10-04T13:28:02;148565.09;;;17.42;62.13
5780;BME280;2916;49.798;10.022;2022-10-04T13:30:42;148532.66;;;17.29;60.93
5780;BME280;2916;49.798;10.022;2022-10-04T13:33:22;148476.59;;;17.06;61.81
5780;BME280;2916;49.798;10.022;2022-10-04T13:36:00;148507.75;;;17.18;61.41
5780;BME280;2916;49.798;10.022;2022-10-04T13:39:15;148525.22;;;17.26;61.54
5780;BME280;2916;49.798;10.022;2022-10-04T13:48:16;148595.00;;;17.54;61.37
5780;BME280;2916;49.798;10.022;2022-10-04T13:51:09;148560.09;;;17.40;59.85
5780;BME280;2916;49.798;10.022;2022-10-04T13:53:50;148555.13;;;17.38;59.69
5780;BME280;2916;49.798;10.022;2022-10-04T13:57:03;148552.59;;;17.37;60.34
5780;BME280;2916;49.798;10.022;2022-10-04T13:59:42;148590.00;;;17.52;60.36
5780;BME280;2916;49.798;10.022;2022-10-04T14:03:00;148627.41;;;17.67;58.90
5780;BME280;2916;49.798;10.022;2022-10-04T14:09:21;148659.91;;;17.81;60.40
5780;BME280;2916;49.798;10.022;2022-10-04T14:12:39;148654.88;;;17.79;59.31
5780;BME280;2916;49.798;10.022;2022-10-04T14:15:42;148604.97;;;17.58;60.69
5780;BME280;2916;49.798;10.022;2022-10-04T14:19:11;148632.41;;;17.70;60.06
5780;BME280;2916;49.798;10.022;2022-10-04T14:25:26;148621.19;;;17.65;59.74
5780;BME280;2916;49.798;10.022;2022-10-04T14:28:41;148602.50;;;17.57;60.78
5780;BME280;2916;49.798;10.022;2022-10-04T14:31:31;148596.25;;;17.55;60.70
5780;BME280;2916;49.798;10.022;2022-10-04T14:34:54;148588.75;;;17.52;60.93
5780;BME280;2916;49.798;10.022;2022-10-04T14:41:26;148526.44;;;17.26;60.87
5780;BME280;2916;49.798;10.022;2022-10-04T14:44:30;148500.25;;;17.15;61.35
5780;BME280;2916;49.798;10.022;2022-10-04T14:47:23;148540.13;;;17.32;60.70
5780;BME280;2916;49.798;10.022;2022-10-04T14:50:19;148562.59;;;17.41;59.75
5780;BME280;2916;49.798;10.022;2022-10-04T14:53:04;148532.66;;;17.29;59.96
5780;BME280;2916;49.798;10.022;2022-10-04T14:56:11;148545.16;;;17.34;60.36
5780;BME280;2916;49.798;10.022;2022-10-04T14:58:59;148535.19;;;17.30;60.90
5780;BME280;2916;49.798;10.022;2022-10-04T15:01:31;148550.09;;;17.36;60.82
5780;BME280;2916;49.798;10.022;2022-10-04T15:04:19;148540.13;;;17.32;60.43
5780;BME280;2916;49.798;10.022;2022-10-04T15:06:55;148532.66;;;17.29;60.81
5780;BME280;2916;49.798;10.022;2022-10-04T15:09:49;148543.91;;;17.33;61.21
5780;BME280;2916;49.798;10.022;2022-10-04T15:12:43;148507.75;;;17.18;61.10
5780;BME280;2916;49.798;10.022;2022-10-04T15:15:34;148522.69;;;17.25;61.12
5780;BME280;2916;49.798;10.022;2022-10-04T15:18:25;148515.25;;;17.22;61.32
5780;BME280;2916;49.798;10.022;2022-10-04T15:21:00;148502.75;;;17.16;60.00
5780;BME280;2916;49.798;10.022;2022-10-04T15:23:33;148491.53;;;17.12;60.30
5780;BME280;2916;49.798;10.022;2022-10-04T15:29:23;148521.44;;;17.24;61.38
5780;BME280;2916;49.798;10.022;2022-10-04T15:32:05;148506.50;;;17.18;62.02
5780;BME280;2916;49.798;10.022;2022-10-04T15:34:57;148474.06;;;17.05;61.79
5780;BME280;2916;49.798;10.022;2022-10-04T15:37:39;148467.88;;;17.02;62.63
5780;BME280;2916;49.798;10.022;2022-10-04T15:40:31;148447.94;;;16.94;62.71
5780;BME280;2916;49.798;10.022;2022-10-04T15:43:26;148431.72;;;16.87;63.11
5780;BME280;2916;49.798;10.022;2022-10-04T15:46:36;148446.66;;;16.93;63.00
5780;BME280;2916;49.798;10.022;2022-10-04T15:49:21;148428.00;;;16.86;63.38
5780;BME280;2916;49.798;10.022;2022-10-04T15:55:46;148413.03;;;16.80;63.65
5780;BME280;2916;49.798;10.022;2022-10-04T15:59:02;148403.06;;;16.76;64.20
5780;BME280;2916;49.798;10.022;2022-10-04T16:01:57;148380.59;;;16.66;65.21
5780;BME280;2916;49.798;10.022;2022-10-04T16:04:58;148363.13;;;16.59;66.23
5780;BME280;2916;49.798;10.022;2022-10-04T16:07:47;148351.94;;;16.55;67.53
5780;BME280;2916;49.798;10.022;2022-10-04T16:10:25;148333.25;;;16.47;67.34
5780;BME280;2916;49.798;10.022;2022-10-04T16:13:24;148308.31;;;16.37;67.83